Time;durP1;ratioP1;P1;durP2;ratioP2;P2;SDS_P1;SDS_P2;PMS_P1;PMS_P2;Temp;Humidity;BMP_temperature;BMP_pressure;BME280_temperature;BME280_humidity;BME280_pressure;Samples;Min_cycle;Max_cycle;Signal;HPM_P1;HPM_P2
2022/11/21 00:01:26;;;;;;;4.30;0.63;;;;;;;2.79;100.00;95448.34;4943342;28;20030;-88
2022/11/21 00:03:52;;;;;;;3.93;1.00;;;;;;;2.78;100.00;95446.69;4940682;29;20149;-88
2022/11/21 00:06:18;;;;;;;2.13;0.80;;;;;;;2.78;100.00;95451.88;4923924;29;20456;-88
2022/11/21 00:08:44;;;;;;;1.50;0.63;;;;;;;2.80;100.00;95445.63;4924213;29;20468;-88
2022/11/21 00:11:10;;;;;;;1.77;0.80;;;;;;;2.85;100.00;95447.84;4941147;29;20122;-88
2022/11/21 00:13:37;;;;;;;3.33;0.70;;;;;;;2.87;100.00;95443.31;4953137;28;20074;-87
2022/11/21 00:16:09;;;;;;;1.87;0.77;;;;;;;2.90;100.00;95445.66;4943700;28;20456;-88
2022/11/21 00:18:35;;;;;;;1.10;0.60;;;;;;;2.85;100.00;95440.06;4938799;28;20051;-88
2022/11/21 00:21:15;;;;;;;2.67;0.90;;;;;;;2.83;100.00;95437.56;4952408;28;20037;-88
2022/11/21 00:23:42;;;;;;;1.57;0.60;;;;;;;2.84;100.00;95435.78;4928016;28;20031;-88
2022/11/21 00:26:09;;;;;;;1.03;0.50;;;;;;;2.87;100.00;95432.94;4928791;29;20649;-87
2022/11/21 00:28:35;;;;;;;0.90;0.60;;;;;;;2.90;100.00;95430.06;4930797;29;20039;-87
2022/11/21 00:31:05;;;;;;;0.67;0.50;;;;;;;2.94;100.00;95422.84;4938735;29;20034;-88
2022/11/21 00:33:31;;;;;;;1.43;0.40;;;;;;;2.95;100.00;95422.72;4931007;28;20127;-87
2022/11/21 00:35:57;;;;;;;1.97;0.50;;;;;;;2.95;100.00;95420.13;4945018;29;20114;-88
2022/11/21 00:38:23;;;;;;;0.60;0.40;;;;;;;2.88;100.00;95416.38;4953112;28;20409;-87
2022/11/21 00:40:49;;;;;;;2.80;0.93;;;;;;;2.89;100.00;95412.03;4959605;28;20065;-88
2022/11/21 00:43:15;;;;;;;1.43;0.60;;;;;;;2.90;100.00;95406.69;4937626;29;20481;-87
2022/11/21 00:45:40;;;;;;;2.37;0.77;;;;;;;2.96;100.00;95403.59;4944716;28;20038;-87
2022/11/21 00:48:06;;;;;;;1.20;0.50;;;;;;;2.95;100.00;95401.94;4922055;29;20046;-87
2022/11/21 00:50:32;;;;;;;1.53;0.43;;;;;;;2.93;100.00;95398.66;4921966;29;20150;-87
2022/11/21 00:52:58;;;;;;;1.47;0.60;;;;;;;3.02;100.00;95404.84;4943020;28;20026;-87
2022/11/21 00:55:24;;;;;;;1.70;0.63;;;;;;;3.01;100.00;95400.56;4952468;28;20050;-87
2022/11/21 00:57:50;;;;;;;2.33;0.60;;;;;;;3.00;100.00;95380.75;4938959;28;20027;-87
2022/11/21 01:00:16;;;;;;;2.00;0.50;;;;;;;2.98;100.00;95386.06;4922148;29;20027;-87
2022/11/21 01:02:42;;;;;;;0.87;0.43;;;;;;;2.98;100.00;95380.88;4937637;28;20050;-88
2022/11/21 01:05:08;;;;;;;1.47;0.50;;;;;;;2.97;100.00;95379.25;4949530;28;20034;-87
2022/11/21 01:07:33;;;;;;;0.93;0.40;;;;;;;2.99;100.00;95369.56;4965650;28;20249;-87
2022/11/21 01:10:07;;;;;;;1.63;0.40;;;;;;;2.99;100.00;95372.16;4954574;29;20045;-87
2022/11/21 01:12:33;;;;;;;2.00;0.73;;;;;;;2.99;100.00;95372.16;4937043;29;20134;-87
2022/11/21 01:14:59;;;;;;;5.93;0.60;;;;;;;2.96;100.00;95371.59;4958910;28;20155;-87
2022/11/21 01:17:24;;;;;;;0.47;0.40;;;;;;;2.89;100.00;95366.13;4932040;29;20097;-87
2022/11/21 01:19:50;;;;;;;1.10;0.47;;;;;;;2.93;100.00;95366.66;4938453;28;20035;-86
2022/11/21 01:22:16;;;;;;;2.30;0.70;;;;;;;2.90;100.00;95367.75;4940293;29;20082;-87
2022/11/21 01:24:42;;;;;;;1.87;0.60;;;;;;;2.88;100.00;95363.63;4953836;28;20023;-87
2022/11/21 01:27:11;;;;;;;2.13;0.60;;;;;;;2.85;100.00;95367.34;4945656;29;20781;-88
2022/11/21 01:29:36;;;;;;;0.90;0.50;;;;;;;2.81;100.00;95376.34;4921732;29;20027;-87
2022/11/21 01:32:02;;;;;;;1.43;0.50;;;;;;;2.76;100.00;95370.72;4916778;29;20044;-87
2022/11/21 01:34:28;;;;;;;2.80;0.70;;;;;;;2.79;100.00;95373.06;4959274;28;20023;-87
2022/11/21 01:36:54;;;;;;;3.00;0.40;;;;;;;2.72;100.00;95369.34;4945647;28;20043;-88
2022/11/21 01:39:19;;;;;;;2.37;0.57;;;;;;;2.70;100.00;95360.88;4943155;28;20065;-87
2022/11/21 01:41:53;;;;;;;0.93;0.50;;;;;;;2.68;100.00;95357.56;4952831;28;20118;-87
2022/11/21 01:44:25;;;;;;;3.03;0.97;;;;;;;2.68;100.00;95349.78;4920731;29;20037;-87
2022/11/21 01:46:52;;;;;;;0.37;0.20;;;;;;;2.73;100.00;95350.22;4938733;28;20503;-88
2022/11/21 01:49:20;;;;;;;2.13;0.47;;;;;;;2.72;100.00;95352.00;4922082;29;20031;-87
2022/11/21 01:52:01;;;;;;;1.47;0.63;;;;;;;2.68;100.00;95347.19;4955283;28;20098;-87
2022/11/21 01:54:49;;;;;;;1.20;0.47;;;;;;;2.69;100.00;95339.28;4957864;28;20037;-87
2022/11/21 01:57:36;;;;;;;1.33;0.60;;;;;;;2.73;100.00;95345.03;4939349;29;20027;-87
2022/11/21 02:00:09;;;;;;;1.20;0.60;;;;;;;2.71;100.00;95336.53;4952396;28;20126;-88
2022/11/21 02:02:38;;;;;;;1.67;0.80;;;;;;;2.60;100.00;95343.47;4962817;28;20035;-88
2022/11/21 02:05:07;;;;;;;1.40;0.53;;;;;;;2.57;100.00;95332.53;4931567;29;20047;-87
2022/11/21 02:07:39;;;;;;;2.67;0.60;;;;;;;2.57;100.00;95332.53;4936757;29;20405;-87
2022/11/21 02:10:07;;;;;;;1.83;0.63;;;;;;;2.57;100.00;95340.34;4931253;29;20510;-87
2022/11/21 02:13:21;;;;;;;3.07;0.47;;;;;;;2.53;100.00;95344.97;4922587;29;20031;-88
2022/11/21 02:15:47;;;;;;;2.63;0.43;;;;;;;2.56;100.00;95349.09;4934736;28;20624;-87
2022/11/21 02:18:15;;;;;;;1.67;0.50;;;;;;;2.60;100.00;95340.06;4959216;28;20038;-88
2022/11/21 02:20:47;;;;;;;3.53;0.63;;;;;;;2.59;100.00;95343.63;4951247;28;20057;-87
2022/11/21 02:23:36;;;;;;;1.90;0.80;;;;;;;2.66;100.00;95338.72;4956421;28;20528;-88
2022/11/21 02:26:02;;;;;;;2.63;0.70;;;;;;;2.70;100.00;95346.09;4934575;29;20035;-87
2022/11/21 02:28:28;;;;;;;4.50;0.90;;;;;;;2.69;100.00;95351.44;4951140;29;20086;-87
2022/11/21 02:31:01;;;;;;;2.97;0.60;;;;;;;2.68;100.00;95350.59;4940370;29;20035;-88
2022/11/21 02:33:26;;;;;;;2.70;0.55;;;;;;;2.65;100.00;95353.50;4948436;28;20405;-87
2022/11/21 02:36:00;;;;;;;5.67;0.80;;;;;;;2.64;100.00;95354.41;4941317;29;20055;-88
2022/11/21 02:38:31;;;;;;;2.47;0.70;;;;;;;2.60;100.00;95345.25;4924854;29;20039;-87
2022/11/21 02:41:12;;;;;;;6.80;0.87;;;;;;;2.64;100.00;95356.19;4950577;28;20085;-88
2022/11/21 02:43:51;;;;;;;2.40;0.63;;;;;;;2.55;100.00;95366.44;4928242;28;20090;-87
2022/11/21 02:46:17;;;;;;;4.43;0.80;;;;;;;2.49;100.00;95353.16;4929191;28;20066;-86
2022/11/21 02:48:43;;;;;;;1.43;0.40;;;;;;;2.50;100.00;95354.78;4939616;28;20039;-86
2022/11/21 02:51:09;;;;;;;2.63;0.40;;;;;;;2.36;100.00;95348.19;4934394;28;20042;-86
2022/11/21 02:53:34;;;;;;;0.73;0.40;;;;;;;2.31;100.00;95350.34;4961436;28;20162;-86
2022/11/21 02:56:00;;;;;;;4.87;1.13;;;;;;;2.28;100.00;95345.41;4946969;28;20485;-86
2022/11/21 02:58:29;;;;;;;1.03;0.27;;;;;;;2.27;100.00;95341.19;4942151;28;20117;-86
2022/11/21 03:00:55;;;;;;;1.17;0.37;;;;;;;2.25;100.00;95350.88;4941791;28;20038;-87
2022/11/21 03:03:21;;;;;;;1.23;0.33;;;;;;;2.24;100.00;95349.22;4970308;28;20027;-87
2022/11/21 03:05:53;;;;;;;1.43;0.30;;;;;;;2.25;100.00;95354.28;4967417;28;20065;-87
2022/11/21 03:08:19;;;;;;;3.65;0.43;;;;;;;2.18;100.00;95355.78;4942068;29;20674;-87
2022/11/21 03:10:45;;;;;;;0.37;0.30;;;;;;;2.14;100.00;95356.97;4956984;28;20032;-87
2022/11/21 03:13:10;;;;;;;1.40;0.57;;;;;;;2.12;100.00;95351.09;4960993;28;20465;-87
2022/11/21 03:15:36;;;;;;;3.57;0.50;;;;;;;2.05;100.00;95353.38;4937827;28;20039;-86
2022/11/21 03:18:14;;;;;;;0.57;0.27;;;;;;;2.04;100.00;95340.53;4938230;29;20123;-86
2022/11/21 03:20:40;;;;;;;0.93;0.40;;;;;;;2.06;100.00;95347.22;4933551;28;20102;-87
2022/11/21 03:23:09;;;;;;;0.77;0.20;;;;;;;2.06;100.00;95344.63;4935676;29;20055;-87
2022/11/21 03:25:36;;;;;;;2.00;0.40;;;;;;;2.02;100.00;95345.03;4939035;29;20047;-87
2022/11/21 03:28:03;;;;;;;5.23;0.70;;;;;;;2.02;100.00;95345.03;4929355;29;20035;-87
2022/11/21 03:30:28;;;;;;;2.23;0.40;;;;;;;2.01;100.00;95343.38;4942145;28;20528;-87
2022/11/21 03:32:55;;;;;;;1.03;0.40;;;;;;;1.99;100.00;95343.50;4966839;28;20043;-87
2022/11/21 03:35:21;;;;;;;1.40;0.50;;;;;;;1.99;100.00;95334.91;4965789;28;20109;-87
2022/11/21 03:37:47;;;;;;;1.60;0.40;;;;;;;2.02;100.00;95332.88;4934657;29;20517;-87
2022/11/21 03:40:22;;;;;;;0.97;0.47;;;;;;;2.07;100.00;95333.31;4942059;29;20039;-87
2022/11/21 03:42:49;;;;;;;2.50;0.50;;;;;;;2.10;100.00;95338.25;4958929;28;20038;-86
2022/11/21 03:45:15;;;;;;;2.30;0.40;;;;;;;2.11;100.00;95329.53;4926031;29;20498;-86
2022/11/21 03:47:41;;;;;;;0.90;0.40;;;;;;;2.13;100.00;95335.38;4940141;28;20114;-87
2022/11/21 03:50:07;;;;;;;2.40;0.60;;;;;;;2.14;100.00;95325.84;4957574;28;20039;-87
2022/11/21 03:52:33;;;;;;;5.37;0.70;;;;;;;2.16;100.00;95320.53;4954237;28;20397;-87
2022/11/21 03:54:58;;;;;;;2.53;0.63;;;;;;;2.17;100.00;95314.38;4960847;28;20035;-87
2022/11/21 03:57:24;;;;;;;3.33;0.77;;;;;;;2.28;100.00;95314.28;4933001;29;20057;-87
2022/11/21 03:59:50;;;;;;;2.07;0.63;;;;;;;2.32;100.00;95313.09;4940749;28;20035;-87
2022/11/21 04:02:17;;;;;;;4.70;0.90;;;;;;;2.39;100.00;95323.75;4927773;28;20050;-87
2022/11/21 04:04:43;;;;;;;5.33;1.10;;;;;;;2.40;100.00;95323.63;4923684;29;20039;-86
2022/11/21 04:07:13;;;;;;;3.67;1.10;;;;;;;2.41;100.00;95314.88;4946790;29;20035;-87
2022/11/21 04:09:38;;;;;;;4.47;1.00;;;;;;;2.44;100.00;95316.38;4935682;29;20039;-87
2022/11/21 04:12:04;;;;;;;3.77;0.97;;;;;;;2.47;100.00;95311.75;4913438;28;20042;-87
2022/11/21 04:14:30;;;;;;;4.90;1.10;;;;;;;2.53;100.00;95307.81;4930047;29;20035;-87
2022/11/21 04:16:56;;;;;;;3.50;0.90;;;;;;;2.55;100.00;95313.72;4931760;28;20035;-86
2022/11/21 04:19:21;;;;;;;5.53;1.30;;;;;;;2.58;100.00;95301.28;4959685;28;20024;-86
2022/11/21 04:21:47;;;;;;;8.67;1.20;;;;;;;2.56;100.00;95308.38;4939165;28;20031;-86
2022/11/21 04:24:12;;;;;;;1.97;0.90;;;;;;;2.57;100.00;95311.78;4923868;28;20026;-86
2022/11/21 04:26:38;;;;;;;4.37;0.97;;;;;;;2.57;100.00;95310.00;4953684;28;20031;-86
2022/11/21 04:29:04;;;;;;;3.80;1.30;;;;;;;2.54;100.00;95304.25;4929916;29;20079;-85
2022/11/21 04:31:37;;;;;;;2.20;1.00;;;;;;;2.63;100.00;95302.66;4945375;28;20026;-86
2022/11/21 04:34:03;;;;;;;4.80;0.90;;;;;;;2.66;100.00;95303.22;4947548;29;20031;-86
2022/11/21 04:36:29;;;;;;;3.90;1.00;;;;;;;2.69;100.00;95302.13;4923588;29;20149;-87
2022/11/21 04:38:55;;;;;;;8.03;3.27;;;;;;;2.69;100.00;95296.94;4946869;28;20049;-87
2022/11/21 04:41:21;;;;;;;6.17;1.30;;;;;;;2.72;100.00;95301.88;4965313;28;20444;-86
2022/11/21 04:43:46;;;;;;;6.07;1.10;;;;;;;2.72;100.00;95307.06;4955031;28;20035;-87
2022/11/21 04:46:12;;;;;;;2.60;0.87;;;;;;;2.70;100.00;95306.34;4940370;28;20112;-87
2022/11/21 04:48:38;;;;;;;4.13;1.87;;;;;;;2.77;100.00;95304.84;4922221;28;20031;-87
2022/11/21 04:51:04;;;;;;;5.53;0.97;;;;;;;2.75;100.00;95299.81;4913075;29;20042;-87
2022/11/21 04:53:33;;;;;;;2.83;0.97;;;;;;;2.74;100.00;95302.53;4919405;29;20039;-86
2022/11/21 04:56:13;;;;;;;1.73;0.70;;;;;;;2.77;100.00;95297.06;4937750;28;20062;-87
2022/11/21 04:58:43;;;;;;;3.40;1.10;;;;;;;2.82;100.00;95287.94;4935299;28;20031;-87
2022/11/21 05:01:12;;;;;;;3.47;0.90;;;;;;;2.77;100.00;95294.47;4944872;29;20035;-87
2022/11/21 05:03:45;;;;;;;2.43;0.77;;;;;;;2.81;100.00;95286.28;4930658;28;20143;-87
2022/11/21 05:06:38;;;;;;;5.97;1.00;;;;;;;2.78;100.00;95283.97;4949863;28;20098;-88
2022/11/21 05:09:04;;;;;;;5.90;1.58;;;;;;;2.74;100.00;95284.34;4950246;28;20070;-87
2022/11/21 05:14:48;;;;;;;4.37;1.27;;;;;;;2.76;100.00;95295.44;4936189;28;20042;-88
2022/11/21 05:17:14;;;;;;;4.73;1.00;;;;;;;2.75;100.00;95293.78;4931614;29;20032;-87
2022/11/21 05:19:42;;;;;;;3.67;1.03;;;;;;;2.72;100.00;95299.25;4964195;28;20425;-87
2022/11/21 05:22:21;;;;;;;2.23;0.93;;;;;;;2.72;100.00;95291.47;4935093;28;20034;-87
2022/11/21 05:24:46;;;;;;;5.67;1.07;;;;;;;2.72;100.00;95301.88;4947518;28;20043;-87
2022/11/21 05:27:12;;;;;;;4.63;1.47;;;;;;;2.71;100.00;95295.00;4937398;28;20031;-86
2022/11/21 05:29:38;;;;;;;4.37;1.07;;;;;;;2.70;100.00;95299.38;4943223;29;20041;-87
2022/11/21 05:32:04;;;;;;;4.50;1.20;;;;;;;2.72;100.00;95294.06;4933864;29;20126;-87
2022/11/21 05:34:29;;;;;;;3.07;1.17;;;;;;;2.71;100.00;95289.81;4937146;29;20298;-87
2022/11/21 05:36:57;;;;;;;6.43;1.17;;;;;;;2.69;100.00;95302.94;4937911;29;20034;-87
2022/11/21 05:39:23;;;;;;;2.67;1.13;;;;;;;2.74;100.00;95298.16;4936686;28;20073;-66
2022/11/21 05:41:48;;;;;;;2.97;0.90;;;;;;;2.68;100.00;95297.88;4970566;28;20093;-88
2022/11/21 05:44:15;;;;;;;1.27;0.70;;;;;;;2.67;100.00;95302.25;4898480;29;20117;-88
2022/11/21 05:46:41;;;;;;;4.80;0.90;;;;;;;2.64;100.00;95304.28;4931330;28;20497;-87
2022/11/21 05:49:13;;;;;;;1.30;0.50;;;;;;;2.59;100.00;95297.72;4935574;28;20059;-90
2022/11/21 05:51:38;;;;;;;1.43;0.40;;;;;;;2.63;100.00;95306.06;4946278;29;20473;-89
2022/11/21 05:54:04;;;;;;;3.43;1.47;;;;;;;2.62;100.00;95301.84;4936628;29;20050;-90
2022/11/21 05:56:30;;;;;;;2.33;0.80;;;;;;;2.63;100.00;95297.47;4935658;28;20035;-90
2022/11/21 05:59:03;;;;;;;1.13;0.60;;;;;;;2.62;100.00;95307.03;4957306;28;20031;-90
2022/11/21 06:04:22;;;;;;;2.97;1.17;;;;;;;2.69;100.00;95309.91;4932509;29;20058;-90
2022/11/21 06:06:48;;;;;;;2.93;0.90;;;;;;;2.77;100.00;95308.28;4939693;28;20087;-89
2022/11/21 06:09:13;;;;;;;3.53;1.30;;;;;;;2.80;100.00;95314.97;4950347;28;20524;-90
2022/11/21 06:11:46;;;;;;;2.60;0.80;;;;;;;2.81;100.00;95311.41;4940120;28;20070;-87
2022/11/21 06:14:15;;;;;;;2.47;1.27;;;;;;;2.83;100.00;95312.13;4937500;29;20146;-87
2022/11/21 06:16:41;;;;;;;4.87;1.27;;;;;;;2.85;100.00;95315.41;4919552;28;20102;-85
2022/11/21 06:19:06;;;;;;;3.80;1.40;;;;;;;2.81;100.00;95317.44;4923125;28;20489;-86
2022/11/21 06:21:33;;;;;;;1.73;0.63;;;;;;;2.77;100.00;95318.66;4932858;28;20047;-85
2022/11/21 06:23:59;;;;;;;4.20;1.00;;;;;;;2.70;100.00;95321.94;4935399;28;20043;-89
2022/11/21 06:26:26;;;;;;;2.13;0.80;;;;;;;2.67;100.00;95312.63;4920502;29;20529;-90
2022/11/21 06:28:53;;;;;;;2.30;1.00;;;;;;;2.62;100.00;95322.59;4925846;28;20045;-89
2022/11/21 06:31:26;;;;;;;2.87;0.80;;;;;;;2.62;100.00;95324.38;4941253;29;20045;-89
2022/11/21 06:33:54;;;;;;;1.17;0.50;;;;;;;2.59;100.00;95321.09;4939280;29;20043;-88
2022/11/21 06:36:23;;;;;;;3.93;0.73;;;;;;;2.60;100.00;95314.13;4939113;29;20074;-90
2022/11/21 06:38:53;;;;;;;8.40;3.53;;;;;;;2.61;100.00;95320.94;4937838;29;20042;-89
2022/11/21 06:41:23;;;;;;;4.73;1.90;;;;;;;2.59;100.00;95318.50;4925939;28;20122;-90
2022/11/21 06:44:00;;;;;;;3.07;0.70;;;;;;;2.59;100.00;95325.47;4927867;28;20040;-87
2022/11/21 06:46:42;;;;;;;3.37;1.07;;;;;;;2.63;100.00;95328.63;4938934;29;20039;-94
2022/11/21 06:49:08;;;;;;;4.03;1.30;;;;;;;2.68;100.00;95332.44;4905922;29;20091;-93
2022/11/21 06:51:34;;;;;;;18.97;9.03;;;;;;;2.65;100.00;95332.72;4932400;29;20842;-88
2022/11/21 06:54:00;;;;;;;4.07;1.33;;;;;;;2.66;100.00;95331.75;4935374;28;20094;-91
2022/11/21 06:56:29;;;;;;;2.47;0.70;;;;;;;2.68;100.00;95332.44;4925468;28;20077;-92
2022/11/21 06:58:57;;;;;;;2.57;0.80;;;;;;;2.68;100.00;95334.22;4921068;28;20043;-91
2022/11/21 07:01:24;;;;;;;1.93;0.50;;;;;;;2.68;100.00;95344.59;4924158;29;20031;-91
2022/11/21 07:04:16;;;;;;;3.17;0.70;;;;;;;2.66;100.00;95349.94;4956741;28;20034;-91
2022/11/21 07:06:53;;;;;;;1.83;0.80;;;;;;;2.59;100.00;95341.03;4960784;28;20041;-91
2022/11/21 07:09:18;;;;;;;1.70;0.70;;;;;;;2.64;100.00;95351.00;4964242;29;20043;-91
2022/11/21 07:11:44;;;;;;;2.53;0.90;;;;;;;2.66;100.00;95343.91;4944363;28;20058;-91
2022/11/21 07:14:10;;;;;;;4.27;0.90;;;;;;;2.65;100.00;95350.03;4962326;28;20054;-91
2022/11/21 07:16:36;;;;;;;3.07;1.17;;;;;;;2.69;100.00;95344.47;4940207;29;20046;-91
2022/11/21 07:19:02;;;;;;;3.27;1.47;;;;;;;2.74;100.00;95344.88;4950384;28;20026;-91
2022/11/21 07:21:37;;;;;;;2.00;1.20;;;;;;;2.76;100.00;95352.56;4937115;29;20401;-91
2022/11/21 07:24:04;;;;;;;4.13;1.40;;;;;;;2.80;100.00;95340.94;4939314;28;20032;-91
2022/11/21 07:26:29;;;;;;;6.00;1.90;;;;;;;2.77;100.00;95346.41;4947900;28;20033;-91
2022/11/21 07:29:00;;;;;;;4.07;2.27;;;;;;;2.80;100.00;95346.94;4957575;28;20549;-91
2022/11/21 07:31:26;;;;;;;5.20;2.13;;;;;;;2.83;100.00;95345.88;4941013;29;20039;-91
2022/11/21 07:33:52;;;;;;;8.03;2.00;;;;;;;2.86;100.00;95350.81;4939725;29;20027;-91
2022/11/21 07:36:17;;;;;;;4.60;2.00;;;;;;;2.93;100.00;95349.31;4940451;29;20221;-91
2022/11/21 07:38:45;;;;;;;5.07;2.30;;;;;;;2.96;100.00;95350.81;4941147;28;20097;-91
2022/11/21 07:41:17;;;;;;;3.60;1.57;;;;;;;3.10;100.00;95352.22;4945485;28;20034;-95
2022/11/21 07:43:43;;;;;;;6.20;1.83;;;;;;;3.03;100.00;95344.94;4933362;28;20031;-91
2022/11/21 07:46:10;;;;;;;2.37;1.27;;;;;;;3.10;100.00;95347.81;4944080;29;20046;-91
2022/11/21 07:48:35;;;;;;;3.97;1.47;;;;;;;3.09;100.00;95343.59;4957217;28;20389;-91
2022/11/21 07:51:09;;;;;;;4.53;1.97;;;;;;;3.15;100.00;95343.03;4940432;29;20039;-90
2022/11/21 07:53:36;;;;;;;5.15;1.20;;;;;;;3.81;100.00;95336.31;4941030;29;20035;-91
2022/11/21 07:56:01;;;;;;;5.97;1.80;;;;;;;3.94;100.00;95332.44;4926813;28;20108;-90
2022/11/21 07:58:30;;;;;;;4.97;1.67;;;;;;;4.20;100.00;95331.84;4945811;28;20480;-91
2022/11/21 08:00:56;;;;;;;3.70;1.43;;;;;;;4.51;100.00;95328.97;4940603;29;20142;-91
2022/11/21 08:03:27;;;;;;;2.93;1.20;;;;;;;4.43;100.00;95335.72;4947946;29;20521;-90
2022/11/21 08:05:52;;;;;;;10.63;3.90;;;;;;;4.92;100.00;95338.88;4935153;28;20059;-88
2022/11/21 08:08:18;;;;;;;4.47;1.40;;;;;;;4.69;100.00;95345.44;4932452;29;20062;-90
2022/11/21 08:11:19;;;;;;;6.40;2.33;;;;;;;5.44;100.00;95343.47;4956279;28;20189;-89
2022/11/21 08:13:45;;;;;;;4.37;1.20;;;;;;;4.75;100.00;95339.66;4916496;28;20126;-90
2022/11/21 08:16:10;;;;;;;16.03;3.40;;;;;;;4.79;100.00;95342.81;4958802;28;20623;-90
2022/11/21 08:18:36;;;;;;;8.30;2.13;;;;;;;4.68;100.00;95342.03;4934763;28;20113;-89
2022/11/21 08:21:03;;;;;;;382.57;39.33;;;;;;;5.25;100.00;95333.19;4945627;29;20142;-90
2022/11/21 08:23:38;;;;;;;404.53;38.27;;;;;;;5.42;100.00;95325.38;4946525;28;20038;-90
2022/11/21 08:26:08;;;;;;;50.60;5.33;;;;;;;4.71;100.00;95328.72;4926746;28;20030;-90
2022/11/21 08:28:38;;;;;;;17.67;2.03;;;;;;;4.81;100.00;95330.47;4929787;28;20062;-90
2022/11/21 08:31:06;;;;;;;235.63;24.50;;;;;;;5.01;100.00;95333.78;4962417;28;20042;-89
2022/11/21 08:33:34;;;;;;;70.10;5.47;;;;;;;4.75;100.00;95331.03;4923626;29;20035;-87
2022/11/21 08:36:06;;;;;;;92.37;8.83;;;;;;;5.16;100.00;95335.75;4941842;28;20803;-90
2022/11/21 08:38:32;;;;;;;221.67;24.20;;;;;;;6.10;100.00;95339.59;4953889;29;20046;-90
2022/11/21 08:43:52;;;;;;;298.97;31.03;;;;;;;6.40;100.00;95340.09;4933717;28;20095;-89
2022/11/21 08:46:40;;;;;;;47.80;7.93;;;;;;;5.68;100.00;95325.41;4915281;29;20035;-89
2022/11/21 08:49:07;;;;;;;313.53;36.27;;;;;;;5.92;100.00;95329.19;4925552;29;20039;-90
2022/11/21 08:51:50;;;;;;;203.57;23.97;;;;;;;6.07;100.00;95321.63;4933853;28;20031;-89
2022/11/21 08:54:17;;;;;;;377.55;45.95;;;;;;;5.99;100.00;95326.81;4934077;28;20031;-89
2022/11/21 08:56:43;;;;;;;99.10;11.67;;;;;;;5.71;100.00;95326.09;4955023;28;20042;-90
2022/11/21 08:59:09;;;;;;;64.87;9.63;;;;;;;5.74;100.00;95331.00;4912848;29;20039;-89
2022/11/21 09:01:35;;;;;;;190.17;20.73;;;;;;;5.90;100.00;95337.16;4904587;29;20033;-89
2022/11/21 09:04:03;;;;;;;149.57;19.53;;;;;;;5.34;100.00;95337.53;4917282;28;20109;-89
2022/11/21 09:06:29;;;;;;;148.50;17.43;;;;;;;5.68;100.00;95335.84;4904432;29;20078;-89
2022/11/21 09:08:55;;;;;;;147.83;18.43;;;;;;;5.86;100.00;95330.59;4937747;28;20189;-92
2022/11/21 09:11:24;;;;;;;216.10;27.73;;;;;;;6.25;100.00;95327.63;4943574;29;20134;-86
2022/11/21 09:19:25;;;;;;;125.80;14.37;;;;;;;6.72;100.00;95319.34;4933797;29;20046;-90
2022/11/21 09:21:51;;;;;;;79.27;39.00;;;;;;;6.70;100.00;95310.84;4921188;28;20094;-92
2022/11/21 09:24:21;;;;;;;62.73;15.97;;;;;;;6.98;100.00;95300.97;4921297;29;20031;-89
2022/11/21 09:26:47;;;;;;;99.37;36.47;;;;;;;7.55;100.00;95295.00;4927457;28;20504;-90
2022/11/21 09:29:14;;;;;;;49.53;9.77;;;;;;;7.50;100.00;95292.03;4901293;29;20042;-92
2022/11/21 09:31:40;;;;;;;38.53;8.77;;;;;;;7.47;100.00;95297.59;4878283;29;20031;-89
2022/11/21 09:34:06;;;;;;;29.40;16.13;;;;;;;6.97;100.00;95290.66;4881669;29;20541;-91
2022/11/21 09:36:32;;;;;;;47.77;23.93;;;;;;;6.88;100.00;95294.25;4879099;29;20481;-92
2022/11/21 09:38:58;;;;;;;14.77;6.43;;;;;;;5.97;100.00;95298.28;4928532;28;20051;-90
2022/11/21 09:44:54;;;;;;;14.70;4.50;;;;;;;5.60;100.00;95306.25;4893249;29;20035;-90
2022/11/21 09:47:26;;;;;;;37.27;8.33;;;;;;;6.12;100.00;95301.13;4895308;29;20075;-91
2022/11/21 09:50:11;;;;;;;19.33;3.77;;;;;;;6.73;100.00;95289.63;4905547;28;20039;-89
2022/11/21 09:53:17;;;;;;;84.50;32.37;;;;;;;6.40;100.00;95293.09;4942502;29;20043;-93
2022/11/21 09:55:50;;;;;;;42.83;4.47;;;;;;;6.59;100.00;95287.63;4920039;28;20043;-92
2022/11/21 09:58:22;;;;;;;81.73;9.20;;;;;;;6.63;100.00;95294.16;4924418;29;20070;-91
2022/11/21 10:00:51;;;;;;;192.77;22.80;;;;;;;7.58;100.00;95286.84;4959126;28;20055;-90
2022/11/21 10:03:21;;;;;;;79.97;11.90;;;;;;;7.64;100.00;95282.72;4917272;29;20039;-91
2022/11/21 10:06:17;;;;;;;47.67;4.90;;;;;;;7.05;100.00;95278.44;4927531;28;20032;-64
2022/11/21 10:08:54;;;;;;;9.37;2.97;;;;;;;6.48;100.00;95283.50;4939692;28;20070;-65
2022/11/21 10:14:53;;;;;;;9.93;1.50;;;;;;;6.30;100.00;95277.53;4938374;29;20042;-87
2022/11/21 10:17:50;;;;;;;23.97;4.60;;;;;;;6.52;100.00;95276.19;4925916;28;20034;-87
2022/11/21 10:20:28;;;;;;;15.50;3.33;;;;;;;6.22;100.00;95264.47;4933885;28;20069;-86
2022/11/21 10:23:35;;;;;;;20.73;2.80;;;;;;;5.81;100.00;95266.81;4929946;28;20470;-87
2022/11/21 10:26:18;;;;;;;16.77;2.87;;;;;;;5.84;100.00;95266.50;4919237;29;20126;-87
2022/11/21 10:29:10;;;;;;;22.15;2.28;;;;;;;5.92;100.00;95261.34;4919209;28;20035;-87
2022/11/21 10:32:12;;;;;;;65.20;8.00;;;;;;;6.26;100.00;95252.72;4886653;29;20126;-87
2022/11/21 10:34:38;;;;;;;8.07;3.30;;;;;;;5.86;100.00;95241.88;4893928;29;20090;-88
2022/11/21 10:37:48;;;;;;;36.07;8.07;;;;;;;7.09;100.00;95229.28;4909639;28;20066;-89
2022/11/21 10:40:32;;;;;;;8.20;1.70;;;;;;;7.71;100.00;95213.03;4912833;29;20046;-87
2022/11/21 10:46:04;;;;;;;216.60;80.70;;;;;;;7.73;100.00;95201.44;4939719;29;20034;-88
2022/11/21 10:48:30;;;;;;;47.70;7.70;;;;;;;7.18;100.00;95207.38;4946813;29;20118;-87
2022/11/21 10:57:11;;;;;;;172.90;17.77;;;;;;;8.14;100.00;95172.50;4942034;28;20102;-87
2022/11/21 10:59:37;;;;;;;19.37;1.77;;;;;;;7.94;100.00;95158.19;4935041;28;20027;-87
2022/11/21 11:02:22;;;;;;;4.93;1.40;;;;;;;8.14;100.00;95169.88;4953369;28;20512;-87
2022/11/21 11:05:15;;;;;;;18.37;2.80;;;;;;;8.89;100.00;95168.53;4924509;28;20047;-87
2022/11/21 11:07:41;;;;;;;4.30;1.23;;;;;;;8.13;100.00;95168.25;4906351;29;20077;-87
2022/11/21 11:10:20;;;;;;;15.97;3.73;;;;;;;8.22;100.00;95159.38;4893883;29;20162;-86
2022/11/21 11:16:06;;;;;;;17.20;2.23;;;;;;;8.17;100.00;95164.31;4942115;28;20035;-91
2022/11/21 11:18:36;;;;;;;59.93;8.00;;;;;;;8.10;100.00;95165.16;4934236;29;20023;-87
2022/11/21 11:21:12;;;;;;;40.00;5.23;;;;;;;8.71;100.00;95158.31;4928688;29;20055;-91
2022/11/21 11:23:43;;;;;;;39.33;5.73;;;;;;;8.79;100.00;95149.59;4922079;29;20063;-91
2022/11/21 11:26:28;;;;;;;24.90;3.27;;;;;;;8.05;100.00;95157.81;4951446;28;20057;-91
2022/11/21 11:29:08;;;;;;;16.03;3.10;;;;;;;8.67;100.00;95147.34;4905610;28;20046;-91
2022/11/21 11:32:12;;;;;;;22.23;6.20;;;;;;;8.71;100.00;95139.97;4931647;29;20042;-91
2022/11/21 11:34:45;;;;;;;23.48;3.03;;;;;;;8.70;100.00;95133.09;4936483;29;20031;-90
2022/11/21 11:37:12;;;;;;;21.45;3.60;;;;;;;9.22;100.00;95132.34;4926023;29;20039;-91
2022/11/21 11:39:44;;;;;;;14.00;2.70;;;;;;;8.88;100.00;95120.50;4931358;29;20039;-90
2022/11/21 11:48:09;;;;;;;10.97;2.70;;;;;;;8.78;100.00;95113.88;4924897;28;20043;-89
2022/11/21 11:51:18;;;;;;;15.70;2.27;;;;;;;9.04;100.00;95105.63;4907535;29;20035;-88
2022/11/21 11:53:50;;;;;;;11.90;2.60;;;;;;;9.45;100.00;95096.38;4889501;28;20055;-88
2022/11/21 11:56:25;;;;;;;10.90;1.80;;;;;;;9.97;100.00;95081.53;4895948;29;20146;-88
2022/11/21 11:59:30;;;;;;;10.43;2.13;;;;;;;10.29;100.00;95079.47;4929555;28;20042;-88
2022/11/21 12:02:24;;;;;;;15.70;2.93;;;;;;;10.19;100.00;95073.69;4923275;29;20043;-90
2022/11/21 12:05:12;;;;;;;17.92;3.03;;;;;;;10.36;100.00;95061.97;4923845;28;20057;-87
2022/11/21 12:07:47;;;;;;;16.93;3.37;;;;;;;11.06;100.00;95068.25;4926764;29;20073;-85
2022/11/21 12:10:20;;;;;;;12.67;3.10;;;;;;;11.28;100.00;95061.97;4948216;29;20063;-86
2022/11/21 12:13:08;;;;;;;10.48;4.10;;;;;;;9.73;100.00;95055.56;4952667;28;20039;-88
2022/11/21 12:15:51;;;;;;;12.50;6.23;;;;;;;9.16;100.00;95064.88;4921407;29;20208;-89
2022/11/21 12:18:39;;;;;;;33.17;22.10;;;;;;;9.49;100.00;95056.66;4952053;28;20030;-92
2022/11/21 12:21:23;;;;;;;6.33;2.03;;;;;;;9.34;100.00;95052.22;4930590;28;20110;-86
2022/11/21 12:24:26;;;;;;;26.27;18.53;;;;;;;9.27;100.00;95050.50;4922332;28;20032;-85
2022/11/21 12:27:11;;;;;;;12.07;5.83;;;;;;;9.28;100.00;95044.25;4958019;29;20067;-87